Latest Coastal Weather Observations for Green Cape

IDN60701

Issued at 4:51 pm EDT Wednesday 18 January 2017 (issued every 10 minutes, with the page automatically refreshed every 10 minutes)

About coastal observations | Map of coastal stations | Coastal observations for NSW | Marine services | Other Formats
Station Details ID: 069137 Name: GREEN CAPE AWS Lat: -37.26 Lon: 150.05 Height: 19.4 m
Data from the previous 72 hours. | See also: Recent months at Green Cape
Date/Time
EDT
Temp
°C
Wind Pressure Rain since
9am
mm
Weather Cloud Vis
km
Sea
Height
m
Swell
Dir  Spd
kts
Gust
kts
hPa Trend Height
m
Period
s
Dir
18/04:30pm 21.1 SSW 32 39 1010.3 - 0.0 - - - - - - -
18/04:00pm 21.1 SSW 31 39 1009.9 - 0.0 - - - - - - -
18/03:53pm 21.1 SSW 29 39 1010.0 - 0.0 - - - - - - -
18/03:30pm 20.7 SSW 34 41 1009.8 - 0.0 - - - - - - -
18/03:00pm 20.2 SW 34 41 1009.7 - 0.0 - - - - - - -
18/02:32pm 19.6 SW 29 41 1010.2 - 0.0 - - - - - - -
18/02:30pm 19.7 SW 29 35 1010.0 - 0.0 - - - - - - -
18/02:04pm 19.9 SW 28 39 1009.6 - 0.0 - - - - - - -
18/02:00pm 20.1 SW 28 36 1009.6 - 0.0 - - - - - - -
18/01:30pm 20.1 SW 26 33 1009.8 - 0.0 - - - - - - -
18/01:00pm 19.4 SSW 29 34 1009.1 - 0.0 - - - - - - -
18/12:30pm 18.8 SW 28 37 1009.5 - 0.0 - - - - - - -
18/12:00pm 18.8 SW 34 39 1008.8 - 0.0 - - - - - - -
18/11:30am 19.7 SW 31 37 1008.8 - 0.0 - - - - - - -
18/11:00am 20.4 SW 33 41 1008.4 - 0.0 - - - - - - -
18/10:30am 20.6 SSW 29 35 1007.4 - 0.0 - - - - - - -
18/10:00am 21.4 SW 30 36 1006.9 - 0.0 - - - - - - -
18/09:30am 21.9 SSW 29 33 1006.3 - 0.0 - - - - - - -
18/09:17am 22.4 SSW 26 31 1005.9 - 0.0 - - - - - - -
18/09:00am 23.6 WSW 16 20 1006.3 - 0.0 - - - - - - -
18/08:30am 23.7 W 17 20 1005.5 - 0.0 - - - - - - -
18/08:00am 23.6 W 11 14 1005.1 - 0.0 - - - - - - -
18/07:30am 23.3 WSW 15 18 1005.7 - 0.0 - - - - - - -
18/07:00am 22.6 SSW 15 17 1006.1 - 0.0 - - - - - - -
18/06:30am 22.7 SSW 19 21 1005.5 - 0.0 - - - - - - -
18/06:00am 22.9 SSW 19 23 1005.4 - 0.0 - - - - - - -
18/05:30am 23.2 SSW 20 23 1005.3 - 0.0 - - - - - - -
18/05:00am 22.9 SW 19 23 1005.1 - 0.0 - - - - - - -
18/04:30am 22.8 SW 20 23 1004.9 - 0.0 - - - - - - -
18/04:00am 23.1 SSW 24 29 1004.6 - 0.0 - - - - - - -
18/03:47am 23.4 SW 17 33 1004.2 - 0.0 - - - - - - -
18/03:45am 23.6 WSW 13 28 1004.6 - 0.0 - - - - - - -
18/03:30am 23.4 WSW 11 13 1004.6 - 0.0 - - - - - - -
18/03:00am 23.6 SW 14 15 1004.5 - 0.0 - - - - - - -
18/02:30am 22.8 SSW 19 23 1004.4 - 0.0 - - - - - - -
18/02:14am 22.4 SW 13 19 1004.4 - 0.0 - - - - - - -
18/02:00am 22.3 WNW 5 6 1003.8 - 0.0 - - - - - - -
18/01:30am 23.0 W 3 5 1004.2 - 0.0 - - - - - - -
18/01:00am 23.8 NW 1 2 1004.9 - 0.0 - - - - - - -
18/12:30am 22.6 W 5 6 1005.7 - 0.0 - - - - - - -
18/12:00am 23.2 W 4 5 1006.4 - 0.0 - - - - - - -
 
Date/Time
EDT
Temp
°C
Wind Pressure Rain since
9am
mm
Weather Cloud Vis
km
Sea
Height
m
Swell
Dir  Spd
kts
Gust
kts
hPa Trend Height
m
Period
s
Dir
17/11:30pm 24.2 N 5 7 1006.7 - 0.0 - - - - - - -
17/11:00pm 24.1 NE 4 7 1007.2 - 0.0 - - - - - - -
17/10:30pm 24.5 ENE 4 5 1007.7 - 0.0 - - - - - - -
17/10:00pm 23.9 NE 3 5 1007.8 - 0.0 - - - - - - -
17/09:30pm 24.3 N 4 6 1008.0 - 0.0 - - - - - - -
17/09:00pm 24.3 NE 3 5 1008.0 - 0.0 - - - - - - -
17/08:30pm 24.2 ESE 3 5 1008.0 - 0.0 - - - - - - -
17/08:00pm 24.7 SE 7 8 1008.1 - 0.0 - - - - - - -
17/07:30pm 25.3 SE 10 12 1007.9 - 0.0 - - - - - - -
17/07:00pm 25.5 NE 5 13 1007.4 - 0.0 - - - - - - -
17/06:30pm 25.4 N 6 7 1007.0 - 0.0 - - - - - - -
17/06:00pm 25.8 N 9 10 1006.6 - 0.0 - - - - - - -
17/05:30pm 26.6 N 11 12 1006.7 - 0.0 - - - - - - -
17/05:00pm 26.9 N 12 14 1006.6 - 0.0 - - - - - - -
17/04:30pm 27.2 N 13 15 1006.5 - 0.0 - - - - - - -
17/04:00pm 27.5 N 13 15 1006.6 - 0.0 - - - - - - -
17/03:30pm 27.7 N 11 14 1006.9 - 0.0 - - - - - - -
17/03:00pm 27.5 N 13 15 1006.8 - 0.0 - - - - - - -
17/02:30pm 27.6 N 14 16 1007.0 - 0.0 - - - - - - -
17/02:00pm 26.1 N 13 16 1007.1 - 0.0 - - - - - - -
17/01:30pm 26.9 N 14 16 1007.4 - 0.0 - - - - - - -
17/01:00pm 27.4 N 12 13 1008.0 - 0.0 - - - - - - -
17/12:30pm 27.3 N 11 12 1008.5 - 0.0 - - - - - - -
17/12:00pm 28.1 N 11 13 1008.9 - 0.0 - - - - - - -
17/11:30am 26.4 NNE 9 10 1009.2 - 0.0 - - - - - - -
17/11:00am 26.1 N 8 9 1009.2 - 0.0 - - - - - - -
17/10:30am 25.5 N 9 11 1009.3 - 0.0 - - - - - - -
17/10:00am 25.5 N 11 12 1009.5 - 0.0 - - - - - - -
17/09:30am 23.9 NNE 9 10 1009.6 - 0.0 - - - - - - -
17/09:00am 22.5 WSW 1 2 1010.3 - 0.0 - - - - - - -
17/08:30am 22.0 NNW 5 8 1010.0 - 0.0 - - - - - - -
17/08:00am 22.1 N 12 14 1009.4 - 0.0 - - - - - - -
17/07:30am 21.6 N 15 17 1009.0 - 0.0 - - - - - - -
17/07:00am 21.1 N 12 13 1009.0 - 0.0 - - - - - - -
17/06:30am 21.1 N 15 17 1008.6 - 0.0 - - - - - - -
17/06:00am 21.0 N 14 16 1008.6 - 0.0 - - - - - - -
17/05:30am 21.2 N 16 18 1008.6 - 0.0 - - - - - - -
17/05:00am 21.4 N 17 19 1008.9 - 0.0 - - - - - - -
17/04:30am 21.7 N 15 19 1009.0 - 0.0 - - - - - - -
17/04:00am 21.7 N 15 18 1009.2 - 0.0 - - - - - - -
17/03:30am 21.9 N 15 17 1009.4 - 0.0 - - - - - - -
17/03:00am 21.7 N 11 14 1010.2 - 0.0 - - - - - - -
17/02:30am 21.4 N 12 15 1010.5 - 0.0 - - - - - - -
17/02:00am 21.3 N 14 17 1010.7 - 0.0 - - - - - - -
17/01:30am 21.1 N 10 12 1011.5 - 0.0 - - - - - - -
17/01:00am 20.9 N 6 8 1012.0 - 0.0 - - - - - - -
17/12:30am 20.9 N 6 8 1012.4 - 0.0 - - - - - - -
17/12:00am 20.4 NNW 3 4 1013.1 - 0.0 - - - - - - -
 
Date/Time
EDT
Temp
°C
Wind Pressure Rain since
9am
mm
Weather Cloud Vis
km
Sea
Height
m
Swell
Dir  Spd
kts
Gust
kts
hPa Trend Height
m
Period
s
Dir
16/11:30pm 21.1 N 7 9 1013.2 - 0.0 - - - - - - -
16/11:00pm 20.8 N 4 5 1013.8 - 0.0 - - - - - - -
16/10:30pm 20.7 NNW 1 3 1014.1 - 0.0 - - - - - - -
16/10:00pm 21.0 N 3 4 1013.9 - 0.0 - - - - - - -
16/09:30pm 21.5 NNE 2 3 1014.2 - 0.0 - - - - - - -
16/09:00pm 21.4 NNE 3 3 1014.0 - 0.0 - - - - - - -
16/08:30pm 21.6 CALM 0 1 1014.2 - 0.0 - - - - - - -
16/08:00pm 22.1 ENE 2 3 1013.9 - 0.0 - - - - - - -
16/07:30pm 22.8 ESE 3 3 1013.9 - 0.0 - - - - - - -
16/07:00pm 23.5 SE 3 5 1014.0 - 0.0 - - - - - - -
16/06:30pm 23.7 SE 4 6 1013.8 - 0.0 - - - - - - -
16/06:00pm 23.7 SSE 7 9 1013.6 - 0.0 - - - - - - -
16/05:30pm 24.3 SSE 6 8 1013.6 - 0.0 - - - - - - -
16/05:00pm 24.1 SSE 7 9 1013.5 - 0.0 - - - - - - -
16/04:30pm 23.5 SSE 11 13 1013.7 - 0.0 - - - - - - -
16/04:00pm 23.6 S 14 16 1013.8 - 0.0 - - - - - - -
16/03:30pm 24.3 SSE 12 14 1013.8 - 0.0 - - - - - - -
16/03:00pm 24.5 S 11 13 1013.9 - 0.0 - - - - - - -
16/02:30pm 24.4 SSE 12 14 1014.1 - 0.0 - - - - - - -
16/02:00pm 23.9 S 14 16 1014.2 - 0.0 - - - - - - -
16/01:30pm 23.8 SSE 14 17 1014.3 - 0.0 - - - - - - -
16/01:00pm 23.6 SSE 15 17 1014.6 - 0.0 - - - - - - -
16/12:30pm 23.7 SSE 15 16 1014.6 - 0.0 - - - - - - -
16/12:00pm 23.7 SSE 13 15 1014.8 - 0.0 - - - - - - -
16/11:30am 23.7 S 13 15 1014.9 - 0.0 - - - - - - -
16/11:00am 24.9 ESE 5 9 1015.1 - 0.0 - - - - - - -
16/10:30am 23.8 NE 5 6 1015.1 - 0.0 - - - - - - -
16/10:00am 23.8 NNE 5 7 1015.3 - 0.0 - - - - - - -
16/09:30am 23.3 NNE 8 10 1015.4 - 0.0 - - - - - - -
16/09:00am 22.7 N 6 7 1015.7 - 0.0 - - - - - - -
16/08:30am 22.0 N 6 7 1015.6 - 0.0 - - - - - - -
16/08:00am 21.0 N 5 7 1015.5 - 0.0 - - - - - - -
16/07:30am 19.6 WNW 1 2 1015.5 - 0.0 - - - - - - -
16/07:00am 18.3 NW 3 4 1015.4 - 0.0 - - - - - - -
16/06:30am 17.4 NW 4 5 1015.3 - 0.0 - - - - - - -
16/06:00am 17.6 NW 4 4 1015.2 - 0.0 - - - - - - -
16/05:30am 18.1 NW 4 5 1015.2 - 0.0 - - - - - - -
16/05:00am 18.8 NNW 4 5 1015.1 - 0.0 - - - - - - -
16/04:30am 19.2 NNW 4 7 1015.0 - 0.0 - - - - - - -
16/04:00am 19.6 N 11 14 1015.0 - 0.0 - - - - - - -
16/03:30am 19.3 NNE 8 10 1015.2 - 0.0 - - - - - - -
16/03:00am 19.2 NNE 8 11 1015.5 - 0.0 - - - - - - -
16/02:30am 19.0 NNE 8 10 1016.0 - 0.0 - - - - - - -
16/02:00am 18.2 N 3 6 1016.5 - 0.0 - - - - - - -
16/01:30am 17.6 NNW 2 3 1016.8 - 0.0 - - - - - - -
16/01:00am 17.9 NNW 2 3 1016.9 - 0.0 - - - - - - -
16/12:30am 17.7 WNW 1 3 1017.2 - 0.0 - - - - - - -
16/12:00am 17.8 SW 3 4 1017.3 - 0.0 - - - - - - -
 
Date/Time
EDT
Temp
°C
Wind Pressure Rain since
9am
mm
Weather Cloud Vis
km
Sea
Height
m
Swell
Dir  Spd
kts
Gust
kts
hPa Trend Height
m
Period
s
Dir
15/11:30pm 17.8 SSW 6 9 1017.7 - 0.0 - - - - - - -
15/11:00pm 17.9 SSW 9 10 1017.8 - 0.0 - - - - - - -
15/10:30pm 17.9 SSW 11 13 1018.0 - 0.0 - - - - - - -
15/10:00pm 18.0 S 12 15 1018.0 - 0.0 - - - - - - -
15/09:30pm 18.0 S 13 15 1017.9 - 0.0 - - - - - - -
15/09:00pm 18.1 S 14 17 1017.8 - 0.0 - - - - - - -
15/08:30pm 18.2 S 13 15 1017.6 - 0.0 - - - - - - -
15/08:00pm 18.1 S 14 16 1017.4 - 0.0 - - - - - - -
15/07:30pm 18.6 S 15 17 1017.0 - 0.0 - - - - - - -
15/07:00pm 18.9 S 17 20 1016.7 - 0.0 - - - - - - -
15/06:30pm 19.4 S 18 21 1016.4 - 0.0 - - - - - - -
15/06:00pm 19.4 S 20 23 1016.3 - 0.0 - - - - - - -
15/05:30pm 19.6 S 22 26 1015.9 - 0.0 - - - - - - -
15/05:00pm 20.0 S 23 27 1016.0 - 0.0 - - - - - - -

Other Formats:

Comma delimited format used in spreadsheet applications
http://www.bom.gov.au/fwo/IDN60701/IDN60701.94934.axf

JavaScript Object Notation format (JSON) in row-major order
http://www.bom.gov.au/fwo/IDN60701/IDN60701.94934.json